Time;durP1;ratioP1;P1;durP2;ratioP2;P2;SDS_P1;SDS_P2;PMS_P1;PMS_P2;Temp;Humidity;BMP_temperature;BMP_pressure;BME280_temperature;BME280_humidity;BME280_pressure;Samples;Min_cycle;Max_cycle;Signal;HPM_P1;HPM_P2
2022/08/06 00:02:00;;;;;;;3.20;1.15;;;16.10;99.90;;;;;;5076582;28;20286;-80
2022/08/06 00:04:27;;;;;;;4.20;1.92;;;16.10;99.90;;;;;;5076148;28;20653;-80
2022/08/06 00:06:55;;;;;;;1.58;1.10;;;16.10;99.90;;;;;;5074704;28;20217;-80
2022/08/06 00:09:22;;;;;;;2.10;1.30;;;15.90;99.90;;;;;;5077913;28;20219;-78
2022/08/06 00:11:49;;;;;;;2.38;1.63;;;15.80;99.90;;;;;;5079002;28;20530;-79
2022/08/06 00:14:16;;;;;;;3.15;1.20;;;15.70;99.90;;;;;;5076829;28;20223;-77
2022/08/06 00:16:43;;;;;;;3.65;1.33;;;15.60;99.90;;;;;;5083411;28;20226;-76
2022/08/06 00:19:11;;;;;;;3.47;1.25;;;15.80;99.90;;;;;;5085619;28;20204;-78
2022/08/06 00:21:41;;;;;;;5.65;2.17;;;15.60;99.90;;;;;;5075761;28;20188;-79
2022/08/06 00:24:08;;;;;;;3.05;1.20;;;15.50;99.90;;;;;;5090547;28;20230;-79
2022/08/06 00:26:37;;;;;;;4.20;1.85;;;15.40;99.90;;;;;;5078101;28;20289;-79
2022/08/06 00:29:05;;;;;;;3.50;1.90;;;15.60;99.90;;;;;;5076130;28;20661;-78
2022/08/06 00:31:32;;;;;;;2.35;1.92;;;15.60;99.90;;;;;;5066688;28;20298;-77
2022/08/06 00:34:02;;;;;;;4.70;1.52;;;15.60;99.90;;;;;;5074052;28;20268;-78
2022/08/06 00:36:32;;;;;;;5.43;2.08;;;15.50;99.90;;;;;;5075668;28;20592;-80
2022/08/06 00:39:02;;;;;;;2.05;1.40;;;15.50;99.90;;;;;;5074653;28;20191;-80
2022/08/06 00:41:30;;;;;;;1.85;1.70;;;15.60;99.90;;;;;;5067867;28;20630;-80
2022/08/06 00:43:58;;;;;;;3.05;1.50;;;15.60;99.90;;;;;;5076407;28;20231;-80
2022/08/06 00:46:25;;;;;;;3.33;1.80;;;15.60;99.90;;;;;;5083975;28;20210;-80
2022/08/06 00:48:53;;;;;;;5.95;1.60;;;15.70;99.90;;;;;;5076576;28;20230;-80
2022/08/06 00:51:20;;;;;;;2.88;1.38;;;15.80;99.90;;;;;;5076207;28;20223;-80
2022/08/06 00:53:51;;;;;;;4.93;2.22;;;15.80;99.90;;;;;;5076207;28;20586;-80
2022/08/06 00:56:18;;;;;;;1.40;1.30;;;15.80;99.90;;;;;;5068713;28;20620;-80
2022/08/06 00:58:45;;;;;;;7.35;1.60;;;15.90;99.90;;;;;;5074333;28;20725;-80
2022/08/06 01:01:13;;;;;;;3.72;1.38;;;15.90;99.90;;;;;;5074244;28;20209;-80
2022/08/06 01:03:41;;;;;;;4.88;3.10;;;16.00;99.90;;;;;;5071740;28;20307;-80
2022/08/06 01:06:08;;;;;;;9.63;1.80;;;16.00;99.90;;;;;;5067164;28;20196;-79
2022/08/06 01:08:35;;;;;;;2.65;1.30;;;15.90;99.90;;;;;;5072686;28;20218;-79
2022/08/06 01:11:04;;;;;;;7.50;1.38;;;15.90;99.90;;;;;;5075160;28;20216;-79
2022/08/06 01:13:31;;;;;;;3.10;1.60;;;15.80;99.90;;;;;;5074591;28;20242;-79
2022/08/06 01:16:08;;;;;;;2.85;1.50;;;15.70;99.90;;;;;;5086586;28;20227;-79
2022/08/06 01:18:44;;;;;;;2.95;1.77;;;15.60;99.90;;;;;;5085774;28;20206;-81
2022/08/06 01:21:23;;;;;;;3.60;1.52;;;15.50;99.90;;;;;;5078668;28;20187;-79
2022/08/06 01:24:03;;;;;;;2.15;1.27;;;15.40;99.90;;;;;;5090903;28;20230;-78
2022/08/06 01:26:47;;;;;;;2.97;1.45;;;15.50;99.90;;;;;;5077773;28;20205;-79
2022/08/06 01:29:22;;;;;;;2.40;1.20;;;15.40;99.90;;;;;;5077357;28;20222;-80
2022/08/06 01:31:54;;;;;;;1.92;1.75;;;15.40;99.90;;;;;;5075103;28;20222;-79
2022/08/06 01:34:26;;;;;;;3.75;1.60;;;15.30;99.90;;;;;;5074702;28;20705;-79
2022/08/06 01:37:02;;;;;;;4.40;2.00;;;15.30;99.90;;;;;;5074337;28;20207;-79
2022/08/06 01:39:33;;;;;;;3.13;2.40;;;15.30;99.90;;;;;;5056762;28;20306;-80
2022/08/06 01:42:04;;;;;;;4.88;1.90;;;15.20;99.90;;;;;;5075440;28;20286;-79
2022/08/06 01:44:40;;;;;;;4.90;2.00;;;15.30;99.90;;;;;;5074360;28;20273;-79
2022/08/06 01:47:10;;;;;;;3.50;1.70;;;15.30;99.90;;;;;;5076648;28;20222;-80
2022/08/06 01:49:40;;;;;;;3.92;1.90;;;15.40;99.90;;;;;;5072944;28;20929;-80
2022/08/06 01:52:08;;;;;;;2.17;2.00;;;15.40;99.90;;;;;;5070399;28;20580;-78
2022/08/06 01:54:41;;;;;;;6.60;1.92;;;15.50;99.90;;;;;;5074650;28;20634;-79
2022/08/06 01:57:11;;;;;;;3.50;1.80;;;15.40;99.90;;;;;;5069515;28;20265;-78
2022/08/06 01:59:46;;;;;;;2.92;2.00;;;15.30;99.90;;;;;;5064464;28;20219;-79
2022/08/06 02:02:18;;;;;;;2.00;1.80;;;15.10;99.90;;;;;;5085157;28;20595;-80
2022/08/06 02:04:48;;;;;;;4.88;2.25;;;14.90;99.90;;;;;;5075767;28;20231;-79
2022/08/06 02:07:17;;;;;;;2.50;2.30;;;14.70;99.90;;;;;;5075454;28;20203;-79
2022/08/06 02:09:47;;;;;;;4.18;2.25;;;14.60;99.90;;;;;;5075521;28;20207;-78
2022/08/06 02:12:18;;;;;;;4.82;1.95;;;14.50;99.90;;;;;;5093840;28;20241;-77
2022/08/06 02:14:52;;;;;;;2.40;2.20;;;14.40;99.90;;;;;;5094954;28;20283;-77
2022/08/06 02:17:23;;;;;;;3.10;2.90;;;14.30;99.90;;;;;;5077959;28;20203;-75
2022/08/06 02:19:51;;;;;;;2.90;2.50;;;14.20;99.90;;;;;;5077629;28;20239;-76
2022/08/06 02:22:20;;;;;;;4.15;3.22;;;14.20;99.90;;;;;;5073950;28;20207;-78
2022/08/06 02:24:48;;;;;;;8.75;2.80;;;14.10;99.90;;;;;;5072763;28;20215;-78
2022/08/06 02:27:17;;;;;;;2.80;2.45;;;14.10;99.90;;;;;;5074294;28;20683;-78
2022/08/06 02:29:48;;;;;;;4.15;2.15;;;14.10;99.90;;;;;;5077510;28;20211;-79
2022/08/06 02:32:16;;;;;;;2.67;2.28;;;14.10;99.90;;;;;;5067379;28;20207;-78
2022/08/06 02:34:43;;;;;;;4.75;2.63;;;14.00;99.90;;;;;;5080730;28;20225;-79
2022/08/06 02:37:22;;;;;;;3.35;2.60;;;14.00;99.90;;;;;;5088770;28;20225;-79
2022/08/06 02:39:53;;;;;;;3.80;2.58;;;13.90;99.90;;;;;;5084590;28;20232;-80
2022/08/06 02:42:31;;;;;;;3.47;2.40;;;13.90;99.90;;;;;;5063789;28;20231;-79
2022/08/06 02:45:03;;;;;;;2.70;2.30;;;13.90;99.90;;;;;;5071863;28;20280;-78
2022/08/06 02:47:34;;;;;;;3.03;2.72;;;13.80;99.90;;;;;;5070571;28;20204;-79
2022/08/06 02:50:04;;;;;;;3.28;2.33;;;13.90;99.90;;;;;;5067819;28;20639;-78
2022/08/06 02:52:38;;;;;;;4.13;2.80;;;13.80;99.90;;;;;;5072978;28;20199;-78
2022/08/06 02:55:11;;;;;;;6.88;3.00;;;13.80;99.90;;;;;;5069840;28;20218;-78
2022/08/06 02:57:41;;;;;;;5.55;3.40;;;13.80;99.90;;;;;;5066675;28;20226;-79
2022/08/06 03:00:10;;;;;;;3.80;2.72;;;13.70;99.90;;;;;;5074330;28;20202;-79
2022/08/06 03:02:40;;;;;;;5.05;3.28;;;13.70;99.90;;;;;;5069740;28;20206;-79
2022/08/06 03:05:14;;;;;;;4.75;3.50;;;13.70;99.90;;;;;;5071812;28;20264;-79
2022/08/06 03:07:41;;;;;;;4.22;3.30;;;13.70;99.90;;;;;;5084573;28;20217;-80
2022/08/06 03:10:12;;;;;;;4.05;3.00;;;13.60;99.90;;;;;;5058384;28;20296;-78
2022/08/06 03:12:40;;;;;;;3.47;2.75;;;13.60;99.90;;;;;;5060579;28;20199;-80
2022/08/06 03:15:10;;;;;;;5.95;3.10;;;13.60;99.90;;;;;;5072622;28;20218;-79
2022/08/06 03:17:39;;;;;;;4.70;2.90;;;13.60;99.90;;;;;;5079533;28;20280;-78
2022/08/06 03:20:09;;;;;;;3.95;3.55;;;13.60;99.90;;;;;;5077369;28;20214;-79
2022/08/06 03:22:38;;;;;;;4.00;3.45;;;13.60;99.90;;;;;;5067843;28;20222;-79
2022/08/06 03:25:08;;;;;;;6.13;3.03;;;13.50;99.90;;;;;;5068411;28;20276;-79
2022/08/06 03:27:36;;;;;;;2.58;2.38;;;13.50;99.90;;;;;;5064912;28;20201;-80
2022/08/06 03:30:05;;;;;;;3.10;2.80;;;13.50;99.90;;;;;;5074340;28;20201;-79
2022/08/06 03:32:34;;;;;;;3.92;3.47;;;13.50;99.90;;;;;;5072124;28;20756;-79
2022/08/06 03:35:01;;;;;;;6.22;3.60;;;13.50;99.90;;;;;;5072887;28;20227;-77
2022/08/06 03:37:32;;;;;;;3.40;3.10;;;13.50;99.90;;;;;;5067015;28;20219;-78
2022/08/06 03:40:01;;;;;;;4.07;3.20;;;13.40;99.90;;;;;;5065185;28;20297;-78
2022/08/06 03:42:28;;;;;;;3.75;3.45;;;13.40;99.90;;;;;;5068781;28;20284;-77
2022/08/06 03:44:55;;;;;;;3.97;3.08;;;13.40;99.90;;;;;;5072534;28;20637;-79
2022/08/06 03:47:28;;;;;;;7.03;2.47;;;13.30;99.90;;;;;;5072079;28;20238;-78
2022/08/06 03:50:05;;;;;;;4.50;3.28;;;13.50;99.90;;;;;;5067377;28;20217;-80
2022/08/06 03:52:38;;;;;;;5.50;2.67;;;13.40;99.90;;;;;;5070888;28;20222;-78
2022/08/06 03:55:07;;;;;;;3.92;3.60;;;13.40;99.90;;;;;;5071506;28;20254;-78
2022/08/06 03:57:39;;;;;;;4.13;3.55;;;13.40;99.90;;;;;;5082847;28;20215;-77
2022/08/06 04:00:09;;;;;;;5.57;3.80;;;13.40;99.90;;;;;;5075821;28;20210;-77
2022/08/06 04:02:40;;;;;;;4.47;3.63;;;13.40;99.90;;;;;;5084207;28;20229;-78
2022/08/06 04:05:12;;;;;;;4.63;3.40;;;13.30;99.90;;;;;;5090771;28;20230;-77
2022/08/06 04:07:40;;;;;;;4.88;4.45;;;13.30;99.90;;;;;;5093209;28;20193;-77
2022/08/06 04:10:10;;;;;;;7.22;4.55;;;13.30;99.90;;;;;;5084186;28;20229;-79
2022/08/06 04:12:37;;;;;;;4.90;3.53;;;13.30;99.90;;;;;;5069607;28;20229;-79
2022/08/06 04:15:07;;;;;;;5.22;3.47;;;13.30;99.90;;;;;;5070146;28;20233;-77
2022/08/06 04:17:36;;;;;;;4.90;4.05;;;13.30;99.90;;;;;;5075433;28;20195;-77
2022/08/06 04:20:06;;;;;;;3.75;3.10;;;13.30;99.90;;;;;;5075084;28;20198;-79
2022/08/06 04:22:35;;;;;;;3.97;3.55;;;13.20;99.90;;;;;;5074732;28;20543;-78
2022/08/06 04:25:06;;;;;;;4.18;3.85;;;13.30;99.90;;;;;;5074510;28;20229;-77
2022/08/06 04:27:36;;;;;;;3.95;3.55;;;13.20;99.90;;;;;;5074030;28;20257;-78
2022/08/06 04:30:04;;;;;;;5.35;4.68;;;13.20;99.90;;;;;;5075066;28;20202;-76
2022/08/06 04:32:32;;;;;;;9.38;4.57;;;13.30;99.90;;;;;;5075647;28;20644;-78
2022/08/06 04:35:04;;;;;;;8.15;3.80;;;13.30;99.90;;;;;;5083146;28;20222;-77
2022/08/06 04:37:32;;;;;;;6.80;4.10;;;13.40;99.90;;;;;;5076489;28;20203;-79
2022/08/06 04:40:01;;;;;;;5.38;3.50;;;13.40;99.90;;;;;;5072020;28;20237;-77
2022/08/06 04:42:29;;;;;;;6.97;4.57;;;13.40;99.90;;;;;;5072547;28;20244;-78
2022/08/06 04:44:56;;;;;;;7.35;3.78;;;13.50;99.90;;;;;;5071649;28;20233;-79
2022/08/06 04:47:25;;;;;;;7.18;3.40;;;13.60;99.90;;;;;;5067301;28;20594;-78
2022/08/06 04:49:52;;;;;;;7.20;3.33;;;13.70;99.90;;;;;;5075904;28;20273;-77
2022/08/06 04:52:22;;;;;;;3.60;3.20;;;13.90;99.90;;;;;;5073394;28;20246;-80
2022/08/06 04:54:49;;;;;;;5.15;3.53;;;14.40;99.90;;;;;;5068654;28;20703;-78
2022/08/06 04:57:17;;;;;;;6.55;3.40;;;14.60;99.90;;;;;;5059967;28;20291;-79
2022/08/06 04:59:47;;;;;;;3.55;3.25;;;14.80;99.90;;;;;;5091721;28;20203;-78
2022/08/06 05:02:14;;;;;;;3.88;2.47;;;15.30;99.90;;;;;;5076966;28;20236;-80
2022/08/06 05:04:42;;;;;;;3.45;2.40;;;16.40;99.90;;;;;;5069817;28;20268;-79
2022/08/06 05:07:16;;;;;;;2.13;1.73;;;17.50;99.90;;;;;;5075386;28;20206;-79
2022/08/06 05:09:45;;;;;;;3.20;1.83;;;18.80;99.90;;;;;;5064141;28;20455;-79
2022/08/06 05:12:20;;;;;;;4.60;2.50;;;19.60;99.90;;;;;;5086535;28;20465;-79
2022/08/06 05:14:52;;;;;;;6.37;1.90;;;20.40;99.90;;;;;;5069322;28;20567;-78
2022/08/06 05:17:25;;;;;;;3.93;1.50;;;20.90;99.90;;;;;;5075810;28;20449;-80
2022/08/06 05:19:57;;;;;;;3.63;1.63;;;21.70;98.30;;;;;;5062559;28;20454;-79
2022/08/06 05:22:24;;;;;;;5.50;1.70;;;22.30;96.00;;;;;;5074985;28;20453;-78
2022/08/06 05:24:52;;;;;;;4.53;1.50;;;23.10;94.00;;;;;;5074115;28;20551;-78
2022/08/06 05:27:21;;;;;;;3.40;2.20;;;23.30;93.00;;;;;;5077141;28;20536;-77
2022/08/06 05:29:48;;;;;;;3.33;1.50;;;23.70;91.80;;;;;;5066057;28;20457;-78
2022/08/06 05:32:16;;;;;;;6.10;1.73;;;24.30;91.20;;;;;;5074620;28;20469;-78
2022/08/06 05:34:46;;;;;;;3.70;1.97;;;24.10;90.00;;;;;;5074618;28;20476;-78
2022/08/06 05:37:13;;;;;;;3.03;1.60;;;23.70;89.60;;;;;;5073837;28;20536;-78
2022/08/06 05:39:41;;;;;;;1.90;1.57;;;24.00;90.50;;;;;;5074093;28;20433;-78
2022/08/06 05:42:08;;;;;;;3.00;1.63;;;24.10;90.00;;;;;;5070920;28;20466;-78
2022/08/06 05:44:36;;;;;;;2.80;1.60;;;24.60;88.70;;;;;;5073569;28;20461;-79
2022/08/06 05:47:07;;;;;;;1.43;1.33;;;24.80;88.90;;;;;;5073635;28;20457;-78
2022/08/06 05:49:42;;;;;;;1.70;1.30;;;25.30;87.20;;;;;;5082715;28;20438;-76
2022/08/06 05:52:14;;;;;;;1.67;1.43;;;25.60;84.70;;;;;;5074180;28;20480;-77
2022/08/06 05:54:47;;;;;;;5.73;1.47;;;26.10;84.50;;;;;;5078071;28;20492;-78
2022/08/06 05:57:19;;;;;;;5.63;1.40;;;26.60;82.20;;;;;;5086063;28;20437;-76
2022/08/06 05:59:53;;;;;;;1.97;1.10;;;26.80;81.40;;;;;;5085873;28;20444;-77
2022/08/06 06:02:21;;;;;;;2.70;1.80;;;26.60;81.90;;;;;;5074941;28;20445;-79
2022/08/06 06:04:48;;;;;;;6.27;4.43;;;26.30;81.60;;;;;;5073473;28;20560;-78
2022/08/06 06:07:16;;;;;;;27.93;21.43;;;26.40;81.30;;;;;;5073861;28;20544;-77
2022/08/06 06:09:43;;;;;;;4.83;3.90;;;26.60;80.90;;;;;;5072136;28;20854;-76
2022/08/06 06:12:12;;;;;;;4.03;1.77;;;26.80;80.00;;;;;;5067035;28;20589;-81
2022/08/06 06:14:42;;;;;;;2.10;1.70;;;26.80;79.10;;;;;;5070328;28;20465;-78
2022/08/06 06:17:44;;;;;;;1.57;1.40;;;26.40;79.40;;;;;;5071515;28;20464;-78
2022/08/06 06:20:18;;;;;;;2.00;1.30;;;26.50;79.10;;;;;;5067530;28;20455;-78
2022/08/06 06:22:56;;;;;;;2.53;1.20;;;26.50;79.80;;;;;;5045885;28;20500;-78
2022/08/06 06:25:26;;;;;;;10.23;7.70;;;27.20;78.70;;;;;;5077515;28;20445;-78
2022/08/06 06:27:59;;;;;;;11.50;6.80;;;27.30;77.70;;;;;;5075648;28;20637;-80
2022/08/06 06:30:34;;;;;;;10.47;8.87;;;27.30;78.00;;;;;;5077712;28;20469;-79
2022/08/06 06:33:15;;;;;;;3.77;3.10;;;27.60;76.90;;;;;;5070065;28;20511;-79
2022/08/06 06:35:53;;;;;;;2.80;1.33;;;27.70;76.50;;;;;;5048429;28;20445;-78
2022/08/06 06:38:30;;;;;;;2.47;2.27;;;28.00;75.40;;;;;;5053118;28;20445;-79
2022/08/06 06:41:01;;;;;;;6.50;2.20;;;28.10;75.10;;;;;;5052862;28;20457;-78
2022/08/06 06:43:38;;;;;;;2.80;1.23;;;28.50;74.30;;;;;;5074400;28;20487;-78
2022/08/06 06:46:12;;;;;;;2.63;1.20;;;28.50;73.10;;;;;;5076541;28;20450;-77
2022/08/06 06:48:43;;;;;;;1.83;1.20;;;28.70;72.60;;;;;;5063247;28;20461;-79
2022/08/06 06:51:20;;;;;;;2.90;0.97;;;28.80;72.70;;;;;;5084591;28;20458;-75
2022/08/06 06:53:49;;;;;;;2.57;1.03;;;29.10;71.50;;;;;;5087028;28;20505;-79
2022/08/06 06:56:21;;;;;;;4.20;1.17;;;29.60;70.40;;;;;;5075576;28;20787;-81
2022/08/06 06:58:53;;;;;;;2.90;1.00;;;29.80;69.10;;;;;;5074186;28;20447;-80
2022/08/06 07:01:21;;;;;;;5.23;1.77;;;29.50;69.40;;;;;;5079856;28;20440;-78
2022/08/06 07:06:32;;;;;;;1.30;1.00;;;29.60;69.80;;;;;;5085014;28;20428;-80
2022/08/06 07:09:02;;;;;;;28.43;23.13;;;29.50;68.80;;;;;;5074885;28;20504;-80
2022/08/06 07:11:31;;;;;;;4.50;1.57;;;29.50;69.50;;;;;;5074002;28;20503;-80
2022/08/06 07:14:01;;;;;;;7.53;5.90;;;30.00;68.60;;;;;;5083585;28;20508;-80
2022/08/06 07:16:31;;;;;;;4.00;2.23;;;30.00;67.60;;;;;;5063040;28;20872;-80
2022/08/06 07:19:06;;;;;;;1.20;0.73;;;30.20;67.70;;;;;;5071291;28;20441;-80
2022/08/06 07:21:36;;;;;;;1.53;0.70;;;29.90;67.60;;;;;;5067328;28;20448;-79
2022/08/06 07:24:24;;;;;;;2.07;0.83;;;30.20;67.90;;;;;;5082071;28;20468;-84
2022/08/06 07:27:09;;;;;;;1.00;0.63;;;30.70;67.00;;;;;;5053417;28;20429;-83
2022/08/06 07:29:37;;;;;;;1.10;0.70;;;31.40;64.70;;;;;;5072076;28;20454;-81
2022/08/06 07:32:06;;;;;;;3.87;0.80;;;31.10;63.80;;;;;;5077349;28;20564;-79
2022/08/06 07:34:34;;;;;;;0.90;0.60;;;31.30;63.80;;;;;;5068625;28;20468;-79
2022/08/06 07:37:03;;;;;;;2.10;0.70;;;31.40;62.90;;;;;;5074087;28;20433;-80
2022/08/06 07:39:37;;;;;;;3.20;1.00;;;31.10;63.10;;;;;;5073650;28;20514;-78
2022/08/06 07:42:10;;;;;;;1.73;0.80;;;30.70;63.20;;;;;;5074116;28;20556;-79
2022/08/06 07:45:24;;;;;;;1.80;0.90;;;30.40;64.10;;;;;;5089792;28;20498;-80
2022/08/06 07:47:53;;;;;;;2.60;0.90;;;30.70;63.30;;;;;;5093103;28;20453;-80
2022/08/06 07:50:41;;;;;;;2.13;1.13;;;30.50;62.80;;;;;;5081531;28;20454;-83
2022/08/06 07:53:12;;;;;;;2.33;1.10;;;30.30;63.40;;;;;;5086715;28;20480;-78
2022/08/06 07:55:59;;;;;;;1.30;0.80;;;30.50;64.20;;;;;;5091082;28;20494;-81
2022/08/06 07:58:27;;;;;;;2.70;1.50;;;30.80;63.50;;;;;;5067340;28;20441;-80
2022/08/06 08:00:54;;;;;;;2.80;0.70;;;30.70;62.50;;;;;;5076006;28;20461;-81
2022/08/06 08:06:18;;;;;;;3.80;1.80;;;31.10;62.30;;;;;;5071423;28;20416;-78
2022/08/06 08:08:48;;;;;;;2.90;0.90;;;31.10;62.70;;;;;;5061274;28;20506;-76
2022/08/06 08:11:17;;;;;;;5.20;0.90;;;31.20;61.70;;;;;;5064841;28;20908;-74
2022/08/06 08:33:11;;;;;;;4.87;1.00;;;31.70;59.90;;;;;;4991344;28;20520;-72
2022/08/06 08:35:38;;;;;;;5.63;1.37;;;31.70;59.70;;;;;;4978703;28;20513;-69
2022/08/06 08:38:05;;;;;;;3.10;2.07;;;31.60;59.50;;;;;;5035661;28;20434;-69
2022/08/06 08:40:34;;;;;;;2.27;1.13;;;31.40;59.30;;;;;;5034828;28;20441;-69
2022/08/06 08:43:06;;;;;;;2.77;0.93;;;31.50;59.80;;;;;;5056705;28;20488;-70
2022/08/06 08:45:35;;;;;;;2.40;0.93;;;31.00;58.80;;;;;;5051545;28;20495;-71
2022/08/06 08:48:04;;;;;;;5.17;0.93;;;31.60;59.60;;;;;;5055555;28;20461;-70
2022/08/06 08:50:34;;;;;;;1.43;0.70;;;31.80;59.00;;;;;;5041273;28;20442;-68
2022/08/06 08:53:06;;;;;;;2.50;1.17;;;31.90;57.90;;;;;;5029181;28;20496;-69
2022/08/06 08:55:33;;;;;;;4.40;0.90;;;31.20;58.00;;;;;;5030942;28;20463;-68
2022/08/06 08:58:04;;;;;;;5.33;1.20;;;31.20;58.70;;;;;;5027191;28;20463;-71
2022/08/06 09:00:31;;;;;;;2.80;0.90;;;31.60;58.90;;;;;;5038520;28;20443;-71
2022/08/06 09:02:58;;;;;;;3.10;1.20;;;32.00;58.40;;;;;;5026018;28;20440;-69
2022/08/06 09:05:29;;;;;;;4.77;2.20;;;31.90;57.80;;;;;;5048772;28;21176;-70
2022/08/06 09:07:58;;;;;;;4.57;2.07;;;31.90;58.10;;;;;;5035277;28;20474;-69
2022/08/06 09:10:25;;;;;;;2.50;0.90;;;31.40;58.60;;;;;;5037562;28;20538;-69
2022/08/06 09:12:52;;;;;;;3.53;1.03;;;31.30;57.20;;;;;;5035082;28;20488;-69
2022/08/06 09:15:19;;;;;;;1.60;0.80;;;30.90;58.50;;;;;;5024423;28;20838;-69
2022/08/06 09:17:53;;;;;;;2.03;0.80;;;31.00;59.30;;;;;;5037398;28;20515;-70
2022/08/06 09:20:20;;;;;;;1.67;0.70;;;31.30;58.80;;;;;;5048154;28;20479;-69
2022/08/06 09:22:52;;;;;;;1.60;0.67;;;31.40;58.50;;;;;;5038610;28;20506;-72
2022/08/06 09:25:47;;;;;;;2.70;0.90;;;31.90;57.40;;;;;;5046992;28;20459;-71
2022/08/06 09:28:28;;;;;;;4.00;0.97;;;32.10;55.40;;;;;;5031606;28;20450;-68
2022/08/06 09:30:59;;;;;;;2.13;0.87;;;32.10;56.30;;;;;;5023846;28;21037;-68
2022/08/06 09:33:26;;;;;;;2.80;1.33;;;31.70;56.40;;;;;;5022561;28;20483;-68
2022/08/06 09:35:59;;;;;;;2.73;1.00;;;31.30;56.40;;;;;;5027035;28;20506;-70
2022/08/06 09:38:27;;;;;;;1.47;0.80;;;31.00;57.80;;;;;;5034239;28;20443;-71
2022/08/06 09:41:06;;;;;;;3.20;0.83;;;31.30;57.40;;;;;;5039046;28;20947;-70
2022/08/06 09:43:33;;;;;;;2.37;0.70;;;30.90;56.90;;;;;;5025353;28;20431;-69
2022/08/06 09:46:02;;;;;;;2.83;1.40;;;30.20;58.50;;;;;;5034441;28;20475;-70
2022/08/06 09:48:29;;;;;;;2.70;1.17;;;29.10;60.10;;;;;;5037356;28;20452;-68
2022/08/06 09:50:56;;;;;;;3.00;0.87;;;28.60;62.70;;;;;;5038209;28;20454;-68
2022/08/06 09:53:26;;;;;;;2.83;1.00;;;28.50;62.80;;;;;;5046916;28;20860;-70
2022/08/06 09:55:55;;;;;;;1.73;0.70;;;28.90;62.90;;;;;;5032089;28;20470;-69
2022/08/06 09:58:32;;;;;;;2.70;1.23;;;29.10;62.00;;;;;;5039573;28;20447;-68
2022/08/06 10:01:25;;;;;;;2.80;0.93;;;28.20;62.20;;;;;;5034914;28;20471;-70
2022/08/06 10:04:02;;;;;;;1.93;1.23;;;27.90;59.30;;;;;;5045658;28;20444;-71
2022/08/06 10:06:34;;;;;;;2.80;1.00;;;28.30;57.70;;;;;;5045226;28;20452;-70
2022/08/06 10:09:10;;;;;;;2.90;0.60;;;29.20;57.20;;;;;;5035744;28;20445;-69
2022/08/06 10:11:39;;;;;;;1.43;0.60;;;29.60;55.60;;;;;;5034594;28;20872;-69
2022/08/06 10:14:22;;;;;;;3.10;0.70;;;30.00;56.80;;;;;;5042611;28;20493;-68
2022/08/06 10:17:04;;;;;;;2.43;0.70;;;29.90;56.30;;;;;;5040170;28;20450;-69
2022/08/06 10:19:31;;;;;;;1.37;0.90;;;29.90;55.80;;;;;;5046210;28;20537;-69
2022/08/06 10:22:05;;;;;;;2.70;0.80;;;30.10;56.10;;;;;;5056449;28;20893;-68
2022/08/06 10:24:34;;;;;;;2.00;0.80;;;29.30;57.70;;;;;;5033211;28;20463;-69
2022/08/06 10:27:01;;;;;;;5.93;1.63;;;29.20;57.30;;;;;;5031689;28;20442;-69
2022/08/06 10:29:30;;;;;;;3.20;0.90;;;29.10;60.20;;;;;;5026706;28;20948;-68
2022/08/06 10:31:58;;;;;;;6.13;1.40;;;28.30;59.50;;;;;;5026142;28;20455;-67
2022/08/06 10:34:28;;;;;;;2.27;0.80;;;27.50;64.50;;;;;;5019470;28;20586;-70
2022/08/06 10:37:02;;;;;;;1.50;0.70;;;26.60;64.70;;;;;;5018150;28;20922;-71
2022/08/06 10:39:32;;;;;;;3.27;1.00;;;25.90;66.90;;;;;;5019175;28;20542;-69
2022/08/06 10:42:00;;;;;;;3.57;1.13;;;25.60;68.70;;;;;;5021772;28;20799;-69
2022/08/06 10:44:29;;;;;;;1.20;0.83;;;26.10;67.80;;;;;;5026322;28;20845;-70
2022/08/06 10:46:56;;;;;;;2.77;0.87;;;26.60;65.70;;;;;;5029323;28;20445;-68
2022/08/06 10:49:23;;;;;;;1.90;0.67;;;26.60;65.20;;;;;;5022427;28;20526;-70
2022/08/06 10:51:50;;;;;;;0.87;0.50;;;26.40;66.10;;;;;;5020944;28;20454;-71
2022/08/06 10:54:18;;;;;;;2.43;0.80;;;26.30;65.30;;;;;;5033462;28;20498;-69
2022/08/06 10:56:46;;;;;;;1.20;0.70;;;26.40;66.20;;;;;;5018777;28;20458;-69
2022/08/06 10:59:15;;;;;;;2.70;0.90;;;26.20;65.80;;;;;;5042874;28;20454;-68
2022/08/06 11:01:51;;;;;;;3.07;0.70;;;26.20;67.60;;;;;;5046291;28;20445;-69
2022/08/06 11:04:31;;;;;;;1.93;0.67;;;26.20;65.30;;;;;;5032099;28;20463;-69
2022/08/06 11:07:27;;;;;;;1.77;0.80;;;26.00;66.30;;;;;;5024928;28;20448;-68
2022/08/06 11:10:19;;;;;;;1.63;0.87;;;26.10;64.60;;;;;;5021698;28;20497;-68
2022/08/06 11:12:53;;;;;;;2.20;0.80;;;26.30;66.10;;;;;;5045274;28;20514;-69
2022/08/06 11:15:20;;;;;;;1.97;1.33;;;26.40;66.10;;;;;;5041506;28;20879;-67
2022/08/06 11:17:50;;;;;;;1.37;0.80;;;26.70;65.90;;;;;;5035378;28;20452;-70
2022/08/06 11:20:39;;;;;;;2.17;0.70;;;26.70;64.70;;;;;;5043868;28;20458;-68
2022/08/06 11:23:23;;;;;;;2.93;0.80;;;26.30;66.30;;;;;;5037247;28;20515;-68
2022/08/06 11:25:51;;;;;;;2.37;1.10;;;25.80;66.90;;;;;;5030821;28;20478;-68
2022/08/06 11:28:20;;;;;;;2.60;1.03;;;25.50;67.00;;;;;;5036356;28;20469;-67
2022/08/06 11:30:49;;;;;;;1.63;1.03;;;25.30;67.20;;;;;;5031552;28;20442;-68
2022/08/06 11:33:20;;;;;;;2.90;0.70;;;25.30;67.50;;;;;;5032440;28;20489;-69
2022/08/06 11:35:49;;;;;;;2.70;1.90;;;25.40;65.70;;;;;;5048035;28;20551;-68
2022/08/06 11:38:52;;;;;;;1.57;0.70;;;25.60;67.40;;;;;;5047555;28;20442;-69
2022/08/06 11:41:22;;;;;;;3.87;2.57;;;25.80;66.30;;;;;;5057322;28;20444;-70
2022/08/06 11:44:07;;;;;;;5.03;1.43;;;25.90;66.10;;;;;;5047043;28;20507;-71
2022/08/06 11:46:36;;;;;;;3.37;0.87;;;26.20;65.30;;;;;;5046458;28;20462;-68
2022/08/06 11:49:16;;;;;;;2.83;0.90;;;26.40;64.10;;;;;;5043239;28;20469;-69
2022/08/06 11:51:45;;;;;;;1.20;0.60;;;26.40;64.80;;;;;;5042515;28;20474;-69
2022/08/06 11:54:14;;;;;;;4.83;0.83;;;26.60;63.70;;;;;;5047502;28;20881;-68
2022/08/06 11:57:17;;;;;;;3.10;0.80;;;26.50;63.40;;;;;;5033393;28;20442;-68
2022/08/06 12:00:04;;;;;;;1.80;0.70;;;26.60;64.10;;;;;;5039293;28;20915;-68
2022/08/06 12:05:49;;;;;;;2.80;1.47;;;27.00;62.30;;;;;;5052446;28;20478;-69
2022/08/06 12:08:26;;;;;;;5.50;1.00;;;26.90;62.00;;;;;;5042904;28;20481;-68
2022/08/06 12:11:22;;;;;;;2.40;1.17;;;26.60;62.40;;;;;;5057423;28;21284;-70
2022/08/06 12:13:49;;;;;;;3.50;0.70;;;26.70;63.80;;;;;;5035452;28;20486;-69
2022/08/06 12:16:34;;;;;;;3.80;1.13;;;26.70;64.50;;;;;;5055299;28;20451;-74
2022/08/06 12:19:14;;;;;;;1.57;0.70;;;26.50;64.80;;;;;;5042698;28;20454;-76
2022/08/06 12:21:44;;;;;;;2.20;0.73;;;26.30;66.60;;;;;;5034714;28;20513;-71
2022/08/06 12:24:12;;;;;;;1.30;0.70;;;25.90;67.10;;;;;;5047107;28;20970;-68
2022/08/06 12:26:39;;;;;;;2.87;1.40;;;25.80;67.30;;;;;;5024801;28;20479;-68
2022/08/06 12:29:07;;;;;;;1.13;0.70;;;25.50;67.70;;;;;;5029218;28;20454;-68
2022/08/06 12:31:37;;;;;;;1.40;0.90;;;25.30;70.30;;;;;;5030011;28;20451;-67
2022/08/06 12:34:05;;;;;;;2.60;1.07;;;25.00;70.00;;;;;;5026901;28;20494;-68
2022/08/06 12:36:34;;;;;;;2.07;1.00;;;24.70;70.40;;;;;;5043058;28;20469;-69
2022/08/06 12:39:06;;;;;;;1.10;0.70;;;24.50;71.80;;;;;;5037463;28;20475;-68
2022/08/06 12:41:35;;;;;;;3.63;1.93;;;24.30;70.30;;;;;;5049828;28;20889;-68
2022/08/06 12:44:02;;;;;;;1.90;1.30;;;24.30;71.90;;;;;;5038917;28;20853;-69
2022/08/06 12:46:29;;;;;;;4.33;1.10;;;24.30;71.20;;;;;;5035361;28;20571;-71
2022/08/06 12:48:56;;;;;;;2.60;1.00;;;24.40;72.80;;;;;;5024866;28;20524;-69
2022/08/06 12:51:23;;;;;;;1.20;0.70;;;24.70;72.00;;;;;;5044923;28;20482;-70
2022/08/06 12:53:52;;;;;;;1.40;0.90;;;25.00;71.10;;;;;;5041774;28;20546;-69
2022/08/06 12:56:25;;;;;;;4.43;1.30;;;25.00;71.60;;;;;;5057232;28;20442;-68
2022/08/06 12:58:54;;;;;;;2.83;1.30;;;24.80;71.80;;;;;;5041675;28;20434;-69
2022/08/06 13:01:24;;;;;;;1.93;1.73;;;24.70;72.20;;;;;;5035485;28;20438;-69
2022/08/06 13:03:55;;;;;;;1.97;1.00;;;24.60;73.00;;;;;;5038023;28;20486;-69
2022/08/06 13:06:34;;;;;;;3.23;1.97;;;24.50;71.30;;;;;;5030141;28;20456;-69
2022/08/06 13:09:07;;;;;;;4.47;1.27;;;24.40;73.20;;;;;;5032181;28;20431;-72
2022/08/06 13:11:36;;;;;;;2.80;0.80;;;24.50;72.50;;;;;;5055745;28;20450;-69
2022/08/06 13:14:15;;;;;;;3.90;1.30;;;24.40;71.70;;;;;;5052712;28;20481;-70
2022/08/06 13:16:44;;;;;;;2.97;1.23;;;24.50;74.10;;;;;;5033773;28;20519;-68
2022/08/06 13:19:16;;;;;;;4.90;1.37;;;24.60;72.90;;;;;;5041816;28;20455;-73
2022/08/06 13:21:44;;;;;;;3.03;1.30;;;24.60;72.60;;;;;;5033254;28;20439;-69
2022/08/06 13:24:13;;;;;;;1.23;0.80;;;24.60;72.50;;;;;;5031826;28;20921;-69
2022/08/06 13:26:52;;;;;;;1.80;0.70;;;24.70;73.10;;;;;;5039187;28;20543;-68
2022/08/06 13:29:24;;;;;;;3.20;1.10;;;24.60;73.40;;;;;;5046150;28;20465;-69
2022/08/06 13:32:03;;;;;;;1.93;1.20;;;24.60;74.10;;;;;;5039289;28;20499;-69
2022/08/06 13:34:30;;;;;;;3.83;1.10;;;24.40;73.10;;;;;;5042465;28;20532;-69
2022/08/06 13:37:01;;;;;;;2.80;1.10;;;24.20;73.80;;;;;;5034091;28;20444;-69